Time;durP1;ratioP1;P1;durP2;ratioP2;P2;SDS_P1;SDS_P2;PMS_P1;PMS_P2;Temp;Humidity;BMP_temperature;BMP_pressure;BME280_temperature;BME280_humidity;BME280_pressure;Samples;Min_cycle;Max_cycle;Signal;HPM_P1;HPM_P2
2024/04/15 00:01:50;;;;;;;9.30;4.00;;;;;;;16.42;65.74;100077.92;108913;1259;59148;-79
2024/04/15 00:04:17;;;;;;;5.90;3.90;;;;;;;16.46;65.76;100078.38;108137;1259;65748;-82
2024/04/15 00:06:44;;;;;;;7.20;4.20;;;;;;;16.48;65.65;100077.71;105709;1262;61282;-81
2024/04/15 00:09:12;;;;;;;6.20;3.60;;;;;;;16.47;65.51;100077.35;106271;1258;63692;-82
2024/04/15 00:11:39;;;;;;;8.20;4.50;;;;;;;16.40;65.61;100081.43;105981;1258;61449;-83
2024/04/15 00:14:07;;;;;;;7.40;4.10;;;;;;;16.33;65.81;100085.27;105730;1258;61317;-83
2024/04/15 00:16:34;;;;;;;5.60;3.60;;;;;;;16.30;65.65;100086.80;105565;1263;65808;-79
2024/04/15 00:19:02;;;;;;;7.70;4.00;;;;;;;16.35;65.64;100087.39;106332;1263;61266;-80
2024/04/15 00:21:29;;;;;;;7.70;4.00;;;;;;;16.43;65.61;100095.81;108075;1257;63884;-79
2024/04/15 00:23:57;;;;;;;6.90;4.10;;;;;;;16.52;65.67;100098.39;107595;1257;61330;-83
2024/04/15 00:26:24;;;;;;;7.80;4.50;;;;;;;16.55;65.50;100102.17;106243;1258;61360;-79
2024/04/15 00:28:51;;;;;;;7.20;4.20;;;;;;;16.53;65.30;100105.39;105685;1257;65661;-80
2024/04/15 00:31:19;;;;;;;8.20;4.30;;;;;;;16.54;65.10;100108.14;105678;1262;61485;-80
2024/04/15 00:33:46;;;;;;;7.10;4.50;;;;;;;16.56;64.97;100111.86;106353;1260;62620;-84
2024/04/15 00:36:14;;;;;;;7.10;4.60;;;;;;;16.61;64.90;100114.12;106717;1258;61283;-82
2024/04/15 00:38:41;;;;;;;8.40;4.70;;;;;;;16.64;64.80;100112.31;106242;1262;61245;-83
2024/04/15 00:41:09;;;;;;;8.60;4.90;;;;;;;16.65;64.62;100104.48;105570;1262;65705;-85
2024/04/15 00:43:36;;;;;;;6.60;4.60;;;;;;;16.63;64.42;100094.75;106256;1257;61482;-80
2024/04/15 00:46:04;;;;;;;9.30;4.60;;;;;;;16.62;64.03;100098.90;109194;1257;62455;-81
2024/04/15 00:48:31;;;;;;;6.70;4.50;;;;;;;16.60;63.85;100098.77;109134;1257;59204;-81
2024/04/15 00:50:58;;;;;;;9.60;4.80;;;;;;;16.61;63.84;100099.56;108601;1257;61333;-81
2024/04/15 00:53:26;;;;;;;7.20;4.90;;;;;;;16.64;63.56;100101.59;107998;1257;64458;-82
2024/04/15 00:55:53;;;;;;;9.10;5.00;;;;;;;16.63;63.35;100100.56;106507;1257;61482;-82
2024/04/15 00:58:21;;;;;;;9.10;4.80;;;;;;;16.60;62.80;100103.25;106090;1258;62544;-80
2024/04/15 01:00:48;;;;;;;8.10;4.10;;;;;;;16.53;62.24;100107.85;106362;1258;61395;-79
2024/04/15 01:03:16;;;;;;;6.30;3.90;;;;;;;16.50;62.00;100112.89;105706;1259;61331;-77
2024/04/15 01:05:43;;;;;;;8.10;4.40;;;;;;;16.49;61.89;100112.69;105916;1258;64914;-79
2024/04/15 01:08:11;;;;;;;7.60;3.90;;;;;;;16.46;61.93;100113.91;105696;1257;61353;-80
2024/04/15 01:10:38;;;;;;;6.70;4.50;;;;;;;16.41;61.96;100118.22;106397;1259;63694;-81
2024/04/15 01:13:25;;;;;;;7.60;5.00;;;;;;;16.29;61.96;100120.18;106067;1262;61379;-83
2024/04/15 01:15:58;;;;;;;7.10;4.60;;;;;;;16.12;62.20;100122.77;105542;1257;61355;-82
2024/04/15 01:18:26;;;;;;;6.50;4.50;;;;;;;15.97;62.58;100123.09;105716;1257;65658;-84
2024/04/15 01:20:58;;;;;;;6.90;4.40;;;;;;;15.89;62.97;100123.84;105812;1257;61249;-81
2024/04/15 01:23:29;;;;;;;10.70;4.70;;;;;;;15.81;63.42;100126.71;106382;1259;62548;-82
2024/04/15 01:25:57;;;;;;;6.90;4.50;;;;;;;15.75;63.81;100126.96;105533;1260;61364;-83
2024/04/15 01:28:24;;;;;;;7.70;4.90;;;;;;;15.72;64.12;100127.80;106655;1257;61365;-83
2024/04/15 01:30:52;;;;;;;7.10;5.20;;;;;;;15.69;64.33;100126.63;105584;1257;64428;-83
2024/04/15 01:33:19;;;;;;;8.60;5.20;;;;;;;15.63;64.42;100118.02;105859;1262;61309;-84
2024/04/15 01:35:46;;;;;;;9.90;4.30;;;;;;;15.59;64.61;100120.58;106713;1261;65082;-82
2024/04/15 01:38:15;;;;;;;7.60;5.30;;;;;;;15.59;64.78;100125.30;105542;1259;61427;-85
2024/04/15 01:40:42;;;;;;;7.80;4.60;;;;;;;15.58;64.67;100124.21;105581;1258;61382;-82
2024/04/15 01:43:10;;;;;;;9.20;4.70;;;;;;;15.54;64.90;100123.58;105644;1259;64487;-82
2024/04/15 01:45:37;;;;;;;8.20;4.20;;;;;;;15.52;65.11;100125.39;105798;1258;61423;-82
2024/04/15 01:48:05;;;;;;;6.20;4.50;;;;;;;15.49;65.29;100126.80;106482;1259;62509;-82
2024/04/15 01:50:33;;;;;;;9.70;4.90;;;;;;;15.41;65.32;100124.33;106984;1257;61286;-81
2024/04/15 01:53:00;;;;;;;10.60;5.40;;;;;;;15.34;65.49;100125.09;108255;1257;60212;-81
2024/04/15 01:55:28;;;;;;;7.00;4.60;;;;;;;15.25;65.54;100123.00;108865;1257;64479;-77
2024/04/15 01:57:55;;;;;;;8.70;4.90;;;;;;;15.21;65.54;100121.70;105626;1258;61629;-80
2024/04/15 02:00:22;;;;;;;6.90;4.80;;;;;;;15.21;65.61;100117.09;106316;1260;65877;-80
2024/04/15 02:02:50;;;;;;;7.50;4.30;;;;;;;15.23;65.51;100118.23;105781;1259;61656;-85
2024/04/15 02:05:17;;;;;;;8.80;5.20;;;;;;;15.23;65.41;100120.70;105767;1257;61202;-81
2024/04/15 02:07:45;;;;;;;7.80;4.60;;;;;;;15.20;65.37;100115.36;105532;1257;65722;-82
2024/04/15 02:10:12;;;;;;;7.50;4.90;;;;;;;15.17;65.24;100113.56;106279;1263;61280;-84
2024/04/15 02:12:40;;;;;;;7.10;5.40;;;;;;;15.16;65.22;100111.11;106257;1260;63781;-85
2024/04/15 02:15:07;;;;;;;6.40;4.60;;;;;;;15.16;65.33;100109.46;105520;1261;61450;-82
2024/04/15 02:17:34;;;;;;;10.20;4.90;;;;;;;15.22;65.22;100106.70;105997;1257;61184;-82
2024/04/15 02:20:02;;;;;;;7.20;4.70;;;;;;;15.31;64.82;100107.00;105593;1259;73705;-80
2024/04/15 02:22:30;;;;;;;8.10;5.00;;;;;;;15.31;64.45;100106.48;106129;1263;61289;-81
2024/04/15 02:24:57;;;;;;;11.00;4.90;;;;;;;15.27;64.49;100110.27;106232;1264;63748;-79
2024/04/15 02:27:24;;;;;;;6.80;4.50;;;;;;;15.30;64.63;100111.55;105569;1263;61384;-78
2024/04/15 02:29:52;;;;;;;9.10;4.80;;;;;;;15.31;64.81;100111.60;107378;1259;61288;-81
2024/04/15 02:32:20;;;;;;;8.90;5.10;;;;;;;15.33;64.65;100113.06;107475;1257;64606;-81
2024/04/15 02:34:48;;;;;;;7.30;4.90;;;;;;;15.40;64.51;100110.73;107515;1263;61225;-81
2024/04/15 02:37:15;;;;;;;8.30;4.70;;;;;;;15.48;64.25;100110.20;108164;1259;62959;-82
2024/04/15 02:39:43;;;;;;;6.90;4.40;;;;;;;15.53;64.02;100114.49;105994;1257;61289;-82
2024/04/15 02:42:10;;;;;;;7.60;5.00;;;;;;;15.55;63.89;100114.59;106083;1263;61464;-80
2024/04/15 02:44:37;;;;;;;6.40;4.80;;;;;;;15.55;63.71;100115.88;105748;1262;65803;-83
2024/04/15 02:47:05;;;;;;;7.90;5.10;;;;;;;15.49;63.40;100111.75;106279;1257;61331;-82
2024/04/15 02:49:32;;;;;;;6.40;4.30;;;;;;;15.41;63.24;100117.51;105576;1259;63724;-82
2024/04/15 02:52:00;;;;;;;11.60;4.70;;;;;;;15.37;62.95;100122.27;106676;1257;61259;-78
2024/04/15 02:54:27;;;;;;;7.40;4.60;;;;;;;15.34;62.56;100123.48;105580;1259;61337;-81
2024/04/15 02:56:54;;;;;;;8.80;4.70;;;;;;;15.32;62.55;100121.64;105662;1263;64562;-79
2024/04/15 02:59:22;;;;;;;8.40;4.30;;;;;;;15.29;62.54;100122.27;106076;1258;61324;-78
2024/04/15 03:01:49;;;;;;;6.50;4.40;;;;;;;15.23;62.44;100124.09;105813;1262;63748;-78
2024/04/15 03:04:17;;;;;;;8.70;4.60;;;;;;;15.18;62.42;100128.54;105718;1258;61263;-80
2024/04/15 03:06:44;;;;;;;7.10;4.00;;;;;;;15.13;62.31;100134.39;106261;1257;61377;-78
2024/04/15 03:09:12;;;;;;;6.80;3.70;;;;;;;15.08;62.24;100133.33;106268;1259;64799;-78
2024/04/15 03:11:39;;;;;;;7.40;4.40;;;;;;;15.05;62.01;100134.58;105632;1258;61325;-77
2024/04/15 03:14:07;;;;;;;9.80;5.20;;;;;;;15.05;61.79;100137.09;105808;1257;72432;-78
2024/04/15 03:16:34;;;;;;;5.90;3.90;;;;;;;15.06;61.78;100140.57;105658;1260;61255;-78
2024/04/15 03:19:01;;;;;;;8.70;4.60;;;;;;;15.03;61.92;100146.36;105279;1259;246698;-78
2024/04/15 03:33:41;;;;;;;7.00;4.40;;;;;;;14.77;62.71;100164.63;102711;1287;604332;-57
2024/04/15 03:36:09;;;;;;;7.50;4.20;;;;;;;15.20;61.18;100175.73;104425;1266;115393;-55
2024/04/15 03:38:37;;;;;;;6.50;3.90;;;;;;;15.17;60.95;100176.02;104665;1269;59698;-55
2024/04/15 03:41:04;;;;;;;8.30;4.40;;;;;;;15.14;60.81;100177.91;104498;1266;64164;-55
2024/04/15 03:43:34;;;;;;;5.80;3.70;;;;;;;15.10;60.67;100179.58;104397;1266;61322;-58
2024/04/15 03:46:02;;;;;;;7.80;4.20;;;;;;;14.98;60.28;100184.25;104666;1268;64033;-60
2024/04/15 03:48:31;;;;;;;7.00;4.40;;;;;;;14.81;60.11;100181.93;104822;1271;59747;-57
2024/04/15 03:50:58;;;;;;;8.40;4.60;;;;;;;14.64;60.00;100177.30;104836;1266;59642;-57
2024/04/15 03:53:27;;;;;;;7.70;3.80;;;;;;;14.47;60.01;100172.40;104323;1267;64059;-57
2024/04/15 03:55:54;;;;;;;7.80;4.10;;;;;;;14.31;60.10;100172.38;104906;1265;61435;-56
2024/04/15 03:58:22;;;;;;;6.50;3.70;;;;;;;14.18;60.02;100167.36;105047;1269;63786;-56
2024/04/15 04:00:49;;;;;;;6.30;4.00;;;;;;;14.12;59.94;100166.98;104344;1271;60667;-56
2024/04/15 04:03:17;;;;;;;7.30;3.50;;;;;;;14.10;59.89;100165.09;105884;1270;59405;-56
2024/04/15 04:05:55;;;;;;;6.20;3.60;;;;;;;14.10;59.74;100169.55;104531;1268;64959;-54
2024/04/15 04:08:39;;;;;;;6.00;3.90;;;;;;;14.07;59.76;100159.60;104390;1271;60458;-54
2024/04/15 04:11:07;;;;;;;7.60;3.90;;;;;;;14.07;59.80;100160.47;104601;1268;64163;-53
2024/04/15 04:13:35;;;;;;;8.10;3.90;;;;;;;14.07;59.51;100158.34;105058;1269;60572;-56
2024/04/15 04:16:04;;;;;;;7.50;4.00;;;;;;;14.04;59.05;100156.75;105693;1269;60378;-54
2024/04/15 04:18:31;;;;;;;6.50;4.00;;;;;;;14.00;59.06;100150.96;105795;1270;65003;-56
2024/04/15 04:20:59;;;;;;;8.40;3.70;;;;;;;14.04;59.11;100147.26;104670;1270;60464;-55
2024/04/15 04:23:27;;;;;;;6.50;3.80;;;;;;;14.12;58.93;100152.63;104228;1266;64281;-57
2024/04/15 04:25:54;;;;;;;5.40;3.20;;;;;;;14.19;58.78;100150.31;104301;1272;60525;-54
2024/04/15 04:28:22;;;;;;;6.30;3.70;;;;;;;14.24;58.48;100152.66;104213;1267;60518;-55
2024/04/15 04:30:49;;;;;;;7.00;3.50;;;;;;;14.26;58.25;100148.55;104337;1269;63731;-57
2024/04/15 04:33:17;;;;;;;5.90;3.70;;;;;;;14.29;58.08;100148.25;105116;1269;60400;-57
2024/04/15 04:35:45;;;;;;;5.90;2.70;;;;;;;14.31;57.73;100151.73;108315;1269;62548;-58
2024/04/15 04:38:12;;;;;;;8.60;3.10;;;;;;;14.34;57.37;100156.49;104404;1266;60578;-62
2024/04/15 04:40:40;;;;;;;7.10;3.70;;;;;;;14.33;56.92;100154.04;104406;1266;60636;-62
2024/04/15 04:43:07;;;;;;;7.60;3.50;;;;;;;14.30;56.70;100161.36;104364;1269;65022;-66
2024/04/15 04:45:35;;;;;;;9.40;3.70;;;;;;;14.29;56.44;100165.69;104716;1264;61284;-60
2024/04/15 04:48:03;;;;;;;6.00;3.40;;;;;;;14.28;56.28;100161.94;104224;1266;63769;-64
2024/04/15 04:50:30;;;;;;;7.40;3.80;;;;;;;14.27;56.35;100158.13;105836;1270;60562;-63
2024/04/15 04:52:57;;;;;;;7.50;3.00;;;;;;;14.33;56.24;100157.08;104261;1271;60438;-62
2024/04/15 04:55:25;;;;;;;5.60;3.20;;;;;;;14.43;56.09;100152.16;104384;1266;63694;-64
2024/04/15 04:57:53;;;;;;;5.40;3.20;;;;;;;14.50;55.67;100153.24;104277;1271;60388;-65
2024/04/15 05:00:20;;;;;;;6.70;3.30;;;;;;;14.52;55.71;100151.10;104345;1270;62479;-55
2024/04/15 05:02:48;;;;;;;6.60;3.60;;;;;;;14.55;55.68;100150.42;104239;1266;60454;-57
2024/04/15 05:05:16;;;;;;;8.50;3.20;;;;;;;14.58;55.47;100147.30;104491;1270;60462;-57
2024/04/15 05:07:43;;;;;;;5.90;2.90;;;;;;;14.62;54.97;100145.22;104495;1266;63687;-56
2024/04/15 05:10:11;;;;;;;5.80;3.10;;;;;;;14.64;54.71;100139.69;104433;1270;72616;-55
2024/04/15 05:12:39;;;;;;;6.50;3.80;;;;;;;14.66;54.58;100139.25;104527;1269;62575;-59
2024/04/15 05:15:07;;;;;;;8.20;3.40;;;;;;;14.69;54.37;100135.83;104295;1271;60472;-59
2024/04/15 05:17:35;;;;;;;5.90;3.40;;;;;;;14.72;54.54;100129.05;107165;1267;62271;-56
2024/04/15 05:20:04;;;;;;;5.80;3.30;;;;;;;14.75;54.46;100127.98;104378;1269;67029;-55
2024/04/15 05:22:31;;;;;;;5.30;3.40;;;;;;;14.78;54.41;100124.67;104850;1268;60547;-56
2024/04/15 05:24:59;;;;;;;6.40;3.10;;;;;;;14.86;54.41;100119.48;104407;1269;64686;-56
2024/04/15 05:27:26;;;;;;;5.10;2.70;;;;;;;14.97;54.41;100121.80;104348;1269;63926;-55
2024/04/15 05:29:54;;;;;;;6.70;2.80;;;;;;;15.07;54.24;100118.37;104603;1266;60443;-57
2024/04/15 05:32:22;;;;;;;6.40;3.10;;;;;;;15.15;53.72;100112.96;104395;1267;63835;-56
2024/04/15 05:34:49;;;;;;;6.80;3.30;;;;;;;15.22;53.54;100111.30;105267;1270;61865;-55
2024/04/15 05:37:17;;;;;;;6.20;3.30;;;;;;;15.32;53.31;100112.30;105093;1269;74963;-59
2024/04/15 05:39:44;;;;;;;6.20;2.40;;;;;;;15.38;53.09;100112.29;104475;1266;60444;-50
2024/04/15 05:42:15;;;;;;;6.00;3.00;;;;;;;15.46;52.60;100109.69;104364;1271;60317;-55
2024/04/15 05:44:42;;;;;;;10.10;3.30;;;;;;;15.55;51.86;100105.05;104308;1266;63789;-55
2024/04/15 05:47:10;;;;;;;5.30;2.70;;;;;;;15.63;51.57;100103.71;104737;1266;63795;-55
2024/04/15 05:49:37;;;;;;;6.70;2.80;;;;;;;15.69;50.64;100100.23;104279;1270;66090;-55
2024/04/15 05:52:05;;;;;;;5.10;2.50;;;;;;;15.76;49.54;100102.00;108395;1265;58542;-56
2024/04/15 05:54:33;;;;;;;4.80;1.90;;;;;;;15.82;48.41;100102.94;108441;1266;62219;-57
2024/04/15 05:57:01;;;;;;;4.00;1.70;;;;;;;15.87;45.95;100102.41;108426;1265;63977;-57
2024/04/15 05:59:29;;;;;;;4.70;1.70;;;;;;;15.93;43.87;100099.08;108420;1266;62477;-57
2024/04/15 06:01:57;;;;;;;4.40;1.70;;;;;;;15.99;41.93;100092.80;108473;1267;62849;-55
2024/04/15 06:04:25;;;;;;;4.80;1.90;;;;;;;16.07;41.94;100090.35;108384;1266;58501;-56
2024/04/15 06:06:53;;;;;;;5.20;1.70;;;;;;;16.17;40.61;100097.13;105128;1269;61708;-56
2024/04/15 06:09:20;;;;;;;4.60;1.20;;;;;;;16.24;38.67;100096.77;104329;1268;76155;-55
2024/04/15 06:11:48;;;;;;;4.70;1.50;;;;;;;16.30;38.94;100089.82;106859;1269;62453;-55
2024/04/15 06:14:16;;;;;;;4.40;1.70;;;;;;;16.39;39.75;100086.05;104409;1267;75307;-55
2024/04/15 06:16:44;;;;;;;5.80;2.10;;;;;;;16.46;40.44;100090.52;104459;1269;60507;-55
2024/04/15 06:19:12;;;;;;;5.40;1.40;;;;;;;16.56;40.31;100092.51;107986;1268;59384;-56
2024/04/15 06:21:41;;;;;;;5.90;1.50;;;;;;;16.64;37.70;100095.48;104489;1266;63840;-63
2024/04/15 06:24:08;;;;;;;4.50;1.70;;;;;;;16.73;37.32;100095.75;104601;1271;60451;-66
2024/04/15 06:26:37;;;;;;;3.90;1.40;;;;;;;16.83;37.44;100097.36;104345;1270;66098;-57
2024/04/15 06:29:05;;;;;;;6.30;1.90;;;;;;;16.89;37.23;100092.55;104602;1270;60532;-56
2024/04/15 06:31:32;;;;;;;5.20;1.90;;;;;;;16.97;37.86;100084.64;104858;1258;62601;-55
2024/04/15 06:34:00;;;;;;;5.70;1.90;;;;;;;17.05;37.90;100083.55;104738;1263;76028;-57
2024/04/15 06:36:28;;;;;;;5.10;2.30;;;;;;;17.13;37.87;100081.64;106138;1262;72152;-56
2024/04/15 06:38:56;;;;;;;6.60;2.40;;;;;;;17.17;38.05;100081.15;105446;1262;64847;-55
2024/04/15 06:41:23;;;;;;;4.10;1.60;;;;;;;17.21;38.43;100086.52;105722;1260;60909;-54
2024/04/15 06:43:51;;;;;;;4.80;1.80;;;;;;;17.24;38.27;100085.50;104871;1258;60419;-57
2024/04/15 06:46:19;;;;;;;3.60;1.50;;;;;;;17.25;38.54;100083.80;104895;1262;76478;-55
2024/04/15 06:48:46;;;;;;;4.30;1.70;;;;;;;17.29;38.99;100084.45;105919;1262;62467;-57
2024/04/15 06:51:15;;;;;;;6.70;1.90;;;;;;;17.35;38.50;100079.09;105061;1260;75262;-56
2024/04/15 06:53:42;;;;;;;4.60;1.60;;;;;;;17.41;38.64;100071.67;105017;1263;61214;-56
2024/04/15 06:56:10;;;;;;;4.20;1.80;;;;;;;17.47;38.28;100064.27;104903;1262;61064;-61
2024/04/15 06:58:37;;;;;;;6.60;2.50;;;;;;;17.54;38.08;100064.75;104986;1261;76866;-57
2024/04/15 07:01:05;;;;;;;5.60;2.40;;;;;;;17.62;38.40;100064.16;105103;1259;62650;-56
2024/04/15 07:03:33;;;;;;;4.40;2.10;;;;;;;17.66;38.44;100055.56;104895;1267;65743;-60
2024/04/15 07:06:00;;;;;;;4.50;1.90;;;;;;;17.70;38.32;100048.96;104821;1265;60953;-58
2024/04/15 07:08:28;;;;;;;5.10;2.10;;;;;;;17.75;38.53;100051.71;104886;1262;60303;-56
2024/04/15 07:10:55;;;;;;;5.00;2.00;;;;;;;17.79;38.34;100055.30;105602;1262;64234;-54
2024/04/15 07:13:23;;;;;;;6.40;2.10;;;;;;;17.82;38.68;100056.58;104968;1263;63495;-60
2024/04/15 07:15:51;;;;;;;6.30;2.60;;;;;;;17.85;38.95;100058.70;105022;1260;62582;-69
2024/04/15 07:18:18;;;;;;;6.10;2.50;;;;;;;17.86;39.80;100056.52;104937;1263;60517;-59
2024/04/15 07:20:46;;;;;;;5.30;2.20;;;;;;;17.82;40.67;100059.34;104873;1257;60559;-58
2024/04/15 07:23:13;;;;;;;6.10;2.80;;;;;;;17.80;41.36;100059.25;104669;1258;64053;-58
2024/04/15 07:25:41;;;;;;;5.10;2.60;;;;;;;17.81;42.07;100060.63;105781;1261;72599;-55
2024/04/15 07:28:08;;;;;;;6.10;2.80;;;;;;;17.84;42.34;100056.30;106110;1256;74862;-57
2024/04/15 07:30:36;;;;;;;7.10;3.40;;;;;;;17.87;42.57;100048.73;104876;1260;60668;-58
2024/04/15 07:33:04;;;;;;;6.70;2.60;;;;;;;17.91;42.84;100040.23;105286;1258;60547;-57
2024/04/15 07:35:35;;;;;;;9.80;2.90;;;;;;;17.95;42.83;100045.65;104929;1262;64307;-58
2024/04/15 07:38:03;;;;;;;9.50;2.80;;;;;;;17.96;43.12;100038.63;105433;1257;73069;-56
2024/04/15 07:40:31;;;;;;;6.00;2.90;;;;;;;17.99;43.31;100030.31;106208;1262;62963;-57
2024/04/15 07:42:58;;;;;;;6.00;2.90;;;;;;;18.03;42.67;100025.40;105022;1257;62243;-65
2024/04/15 07:45:26;;;;;;;5.20;2.60;;;;;;;18.07;41.92;100026.77;104887;1262;61558;-62
2024/04/15 07:47:53;;;;;;;6.40;2.70;;;;;;;18.09;41.47;100020.65;104922;1263;64595;-57
2024/04/15 07:50:21;;;;;;;5.20;2.90;;;;;;;18.12;41.23;100008.41;104926;1261;72648;-57
2024/04/15 07:52:49;;;;;;;6.90;2.50;;;;;;;18.15;41.78;100002.20;105113;1263;65848;-59
2024/04/15 07:55:16;;;;;;;7.50;2.80;;;;;;;18.21;42.22;99992.70;104945;1257;61351;-58
2024/04/15 07:57:44;;;;;;;8.20;2.60;;;;;;;18.30;41.69;99993.82;105008;1257;61295;-59
2024/04/15 08:00:12;;;;;;;9.50;3.50;;;;;;;18.35;41.62;99987.13;104931;1263;66517;-59
2024/04/15 08:02:41;;;;;;;6.30;2.90;;;;;;;18.42;41.67;99986.30;105099;1257;61836;-60
2024/04/15 08:05:08;;;;;;;6.90;3.20;;;;;;;18.47;41.36;99974.74;104944;1260;64208;-58
2024/04/15 08:07:36;;;;;;;5.50;2.80;;;;;;;18.49;40.76;99968.42;104882;1257;61302;-59
2024/04/15 08:10:04;;;;;;;7.70;2.70;;;;;;;18.52;40.52;99969.77;104708;1264;62160;-59
2024/04/15 08:12:32;;;;;;;6.30;3.00;;;;;;;18.55;40.57;99970.39;106106;1263;64846;-58
2024/04/15 08:14:59;;;;;;;7.10;3.40;;;;;;;18.62;40.53;99974.78;105311;1262;61592;-58
2024/04/15 08:17:27;;;;;;;7.40;3.00;;;;;;;18.68;40.87;99968.73;105366;1257;62900;-58
2024/04/15 08:19:54;;;;;;;8.60;2.70;;;;;;;18.74;40.76;99961.60;105041;1257;61289;-68
2024/04/15 08:22:22;;;;;;;5.00;2.60;;;;;;;18.81;40.94;99959.16;105067;1257;61356;-64
2024/04/15 08:24:50;;;;;;;9.60;2.60;;;;;;;18.89;41.00;99953.65;104898;1257;66710;-63
2024/04/15 08:27:21;;;;;;;5.20;2.50;;;;;;;18.99;41.25;99953.52;106512;1258;73423;-60
2024/04/15 08:29:48;;;;;;;6.50;2.60;;;;;;;19.06;40.72;99956.80;105019;1261;65970;-56
2024/04/15 08:32:16;;;;;;;6.30;3.00;;;;;;;19.14;40.69;99957.81;105065;1260;61339;-59
2024/04/15 08:34:44;;;;;;;6.40;2.60;;;;;;;19.22;39.81;99960.89;104928;1261;62176;-57
2024/04/15 08:37:11;;;;;;;5.40;2.70;;;;;;;19.28;39.48;99964.73;105975;1260;68010;-60
2024/04/15 08:39:40;;;;;;;7.10;2.90;;;;;;;19.37;39.72;99958.54;105073;1258;61568;-57
2024/04/15 08:42:19;;;;;;;6.50;2.70;;;;;;;19.46;39.55;99953.42;105155;1257;74904;-58
2024/04/15 08:44:48;;;;;;;6.60;2.20;;;;;;;19.59;39.32;99941.90;104954;1262;62397;-59
2024/04/15 08:47:23;;;;;;;6.00;2.60;;;;;;;19.74;38.09;99953.41;104903;1256;61392;-60
2024/04/15 08:49:51;;;;;;;6.00;2.30;;;;;;;19.81;36.88;99956.73;107976;1257;70828;-63
2024/04/15 08:52:19;;;;;;;7.30;2.20;;;;;;;19.79;35.70;99950.55;105035;1257;72655;-66
2024/04/15 08:54:47;;;;;;;7.30;1.90;;;;;;;19.73;35.99;99941.23;105082;1259;64976;-70
2024/04/15 08:57:14;;;;;;;4.20;1.60;;;;;;;19.67;36.42;99943.41;104958;1257;61219;-65
2024/04/15 08:59:44;;;;;;;8.00;2.20;;;;;;;19.63;35.26;99949.41;108816;1256;60993;-73
2024/04/15 09:02:16;;;;;;;5.80;1.90;;;;;;;19.59;35.26;99945.81;109016;1257;68116;-59
2024/04/15 09:04:43;;;;;;;5.40;2.00;;;;;;;19.58;35.58;99938.98;108941;1257;60270;-63
2024/04/15 09:07:11;;;;;;;7.70;2.30;;;;;;;19.61;35.71;99931.83;108802;1257;72492;-58
2024/04/15 09:09:38;;;;;;;6.30;1.80;;;;;;;19.65;35.59;99930.59;108874;1257;58957;-63
2024/04/15 09:12:06;;;;;;;4.60;2.00;;;;;;;19.73;35.56;99939.15;108961;1257;59796;-63
2024/04/15 09:14:35;;;;;;;7.00;2.20;;;;;;;19.76;35.66;99946.05;105448;1257;76014;-59
2024/04/15 09:17:05;;;;;;;7.40;2.40;;;;;;;19.79;35.95;99947.39;106324;1260;72451;-57
2024/04/15 09:19:33;;;;;;;7.80;2.40;;;;;;;19.80;35.88;99960.98;105357;1261;73055;-58
2024/04/15 09:22:01;;;;;;;5.00;1.90;;;;;;;19.75;35.78;99953.63;105023;1257;61321;-57
2024/04/15 09:24:29;;;;;;;8.60;2.40;;;;;;;19.68;36.19;99963.01;105099;1256;61292;-57
2024/04/15 09:26:56;;;;;;;5.80;2.40;;;;;;;19.58;35.99;99980.45;105012;1260;66647;-56
2024/04/15 09:29:24;;;;;;;6.80;2.40;;;;;;;19.47;36.21;99970.25;105110;1257;61365;-56
2024/04/15 09:31:52;;;;;;;9.70;2.60;;;;;;;19.38;36.75;99967.75;105690;1257;62560;-57
2024/04/15 09:34:20;;;;;;;6.50;2.30;;;;;;;19.34;37.16;99966.51;105041;1260;61584;-58
2024/04/15 09:36:56;;;;;;;;;;;;;;;19.29;37.47;99958.17;104909;1258;61448;-66
2024/04/15 09:39:25;;;;;;;6.90;2.50;;;;;;;19.25;37.85;99961.78;105722;1258;76841;-59
2024/04/15 09:41:53;;;;;;;5.50;2.00;;;;;;;19.23;38.05;99957.09;105701;1264;61251;-57
2024/04/15 09:44:21;;;;;;;16.20;7.50;;;;;;;19.22;38.07;99958.55;105029;1257;66173;-58
2024/04/15 09:46:48;;;;;;;8.10;2.90;;;;;;;19.20;37.43;99971.58;105030;1261;61371;-59
2024/04/15 09:49:16;;;;;;;10.50;3.20;;;;;;;19.11;37.35;99981.61;105081;1257;61459;-59
2024/04/15 09:51:44;;;;;;;10.70;6.00;;;;;;;19.05;37.73;99963.09;105238;1258;67936;-57
2024/04/15 09:54:11;;;;;;;9.50;4.70;;;;;;;19.04;38.05;99949.58;105171;1257;61363;-56
2024/04/15 09:56:44;;;;;;;6.40;2.00;;;;;;;19.05;37.91;99945.71;105133;1261;74886;-57
2024/04/15 09:59:13;;;;;;;11.50;5.20;;;;;;;19.06;37.92;99936.77;105235;1257;61356;-60
2024/04/15 10:01:41;;;;;;;13.20;6.70;;;;;;;19.05;38.33;99943.26;105933;1256;61293;-57
2024/04/15 10:04:15;;;;;;;7.50;3.30;;;;;;;19.01;38.89;99950.79;105355;1258;68531;-57
2024/04/15 10:06:47;;;;;;;12.00;6.00;;;;;;;18.93;38.39;99951.12;106645;1257;63944;-59
2024/04/15 10:09:15;;;;;;;5.50;2.60;;;;;;;18.89;38.49;99947.83;105155;1257;74848;-59
2024/04/15 10:11:44;;;;;;;7.60;3.20;;;;;;;18.92;38.65;99935.97;105220;1257;61336;-59
2024/04/15 10:14:12;;;;;;;8.00;3.30;;;;;;;18.93;38.58;99944.19;105168;1260;61252;-60
2024/04/15 10:16:39;;;;;;;7.10;2.80;;;;;;;18.90;39.19;99948.66;105031;1257;77076;-58
2024/04/15 10:19:10;;;;;;;8.30;2.50;;;;;;;18.86;39.42;99945.01;105362;1258;72960;-59
2024/04/15 10:21:40;;;;;;;8.10;3.20;;;;;;;18.77;39.14;99945.77;105057;1260;66037;-59
2024/04/15 10:24:11;;;;;;;7.60;3.30;;;;;;;18.70;39.00;99931.84;105119;1256;61372;-60
2024/04/15 10:26:38;;;;;;;10.50;5.30;;;;;;;18.65;39.10;99928.02;106010;1257;62233;-60
2024/04/15 10:29:16;;;;;;;8.30;3.60;;;;;;;18.61;38.80;99917.66;105203;1257;68064;-60
2024/04/15 10:31:51;;;;;;;7.80;2.90;;;;;;;18.57;38.77;99903.56;105191;1261;61368;-60
2024/04/15 10:34:23;;;;;;;5.80;1.90;;;;;;;18.54;39.15;99877.46;106817;1257;73313;-59
2024/04/15 10:36:52;;;;;;;6.50;1.90;;;;;;;18.53;39.15;99865.11;105816;1257;61452;-60
2024/04/15 10:39:21;;;;;;;6.40;2.30;;;;;;;18.56;39.40;99853.77;105861;1257;61436;-59
2024/04/15 10:41:49;;;;;;;7.60;1.90;;;;;;;18.61;39.58;99854.11;105914;1258;77254;-62
2024/04/15 10:44:17;;;;;;;9.50;2.50;;;;;;;18.62;39.65;99857.63;105147;1258;72608;-60
2024/04/15 10:46:45;;;;;;;9.80;3.10;;;;;;;18.60;39.75;99847.59;105080;1257;64699;-61
2024/04/15 10:49:14;;;;;;;5.90;2.40;;;;;;;18.56;40.16;99861.70;105117;1257;61244;-58
2024/04/15 10:51:43;;;;;;;7.80;2.00;;;;;;;18.52;41.42;99868.98;106095;1257;61348;-60
2024/04/15 10:54:10;;;;;;;12.40;7.00;;;;;;;18.48;42.38;99856.43;105177;1257;64562;-58
2024/04/15 10:56:38;;;;;;;10.20;3.80;;;;;;;18.41;43.43;99846.73;105175;1260;61279;-58
2024/04/15 10:59:05;;;;;;;16.40;9.80;;;;;;;18.30;44.82;99850.66;105002;1258;74929;-56
2024/04/15 11:01:33;;;;;;;18.20;10.60;;;;;;;18.17;46.01;99857.25;105413;1257;61237;-60
2024/04/15 11:04:05;;;;;;;28.20;11.50;;;;;;;17.98;46.68;99857.05;105506;1256;61454;-60
2024/04/15 11:06:34;;;;;;;15.30;10.60;;;;;;;17.77;47.77;99862.29;105484;1257;65870;-57
2024/04/15 11:09:01;;;;;;;13.60;8.40;;;;;;;17.57;48.43;99874.09;105051;1260;64154;-60
2024/04/15 11:11:29;;;;;;;15.50;8.70;;;;;;;17.38;49.08;99883.08;105135;1260;74931;-60
2024/04/15 11:13:57;;;;;;;15.30;8.80;;;;;;;17.23;49.79;99885.29;104924;1257;62294;-59
2024/04/15 11:16:24;;;;;;;8.60;3.30;;;;;;;17.13;50.88;99898.23;108903;1257;59319;-59
2024/04/15 11:18:52;;;;;;;6.60;2.50;;;;;;;16.99;50.99;99914.88;108973;1260;66077;-58
2024/04/15 11:21:20;;;;;;;11.50;2.90;;;;;;;16.89;51.56;99912.38;107441;1256;71739;-58
2024/04/15 11:23:50;;;;;;;7.60;3.00;;;;;;;16.83;51.04;99924.39;105114;1258;62868;-59
2024/04/15 11:26:19;;;;;;;7.40;2.60;;;;;;;16.75;50.75;99922.19;105091;1260;61358;-58
2024/04/15 11:28:47;;;;;;;6.50;2.60;;;;;;;16.62;50.56;99928.54;105030;1258;61270;-58
2024/04/15 11:31:14;;;;;;;7.60;3.40;;;;;;;16.50;50.93;99893.43;105195;1258;76918;-60
2024/04/15 11:33:42;;;;;;;7.30;3.20;;;;;;;16.42;51.62;99884.11;105021;1261;72235;-60
2024/04/15 11:36:17;;;;;;;5.70;2.40;;;;;;;16.32;52.30;99895.99;105323;1260;74828;-59